Bookmark and Share
Track history (hours):
 

Tasman Crusader

Last reported at 2014-Apr-16 18:00 UTC. Time now 2014-Apr-24 11:33 UTC.
Position N 30°48' W 118°18'.

Length 186 m; draft 10.1 m.

Type: Cargo ship. MMSI: 636091434.

Wind from 320 at 19 knots

Waves 1.0 meters (3 feet), 4 second period

Barometer 1013.5 mb
Air temperature 17.0 ° C
Visibility: greater than 5.4 NM
Dewpoint 12.8 ° C

NotesDate/timePositionNaut miles runAvg speedWind from/ knotsBaromVisibWave heightAir tempDewpointWater temp
2014-Apr-16 18:00N 30°48' W 118°18'1739.5 320 / 191013.5 5.4 1.017.012.8
2014-Apr-16 17:33N 31°02' W 118°30'1616.1
2014-Apr-16 16:33N 31°14' W 118°42'1816.1
2014-Apr-16 15:27N 31°28' W 118°55'1617.5
2014-Apr-16 14:33N 31°41' W 119°06'3215.9
2014-Apr-16 12:33N 32°06' W 119°29'1616.0
2014-Apr-16 11:33N 32°19' W 119°40'1616.1
2014-Apr-16 10:33N 32°31' W 119°52'1616.1
2014-Apr-16 09:33N 32°44' W 120°04'1616.1
2014-Apr-16 08:34N 32°57' W 120°15'1615.8
2014-Apr-16 07:33N 33°09' W 120°27'1616.0
2014-Apr-16 06:33N 33°22' W 120°39'1616.0
2014-Apr-16 05:33N 33°35' W 120°50'1615.6
2014-Apr-16 04:33N 33°47' W 121°01'1615.8
2014-Apr-16 03:34N 34°01' W 121°10'1615.8
2014-Apr-16 02:33N 34°16' W 121°18'1616.4
2014-Apr-16 01:34N 34°31' W 121°26'1615.9
2014-Apr-16 00:33N 34°45' W 121°35'1616.1
2014-Apr-15 23:33N 34°60' W 121°43'1615.8
2014-Apr-15 22:33N 35°14' W 121°52'1716.5
2014-Apr-15 21:33N 35°29' W 121°60'1616.3
2014-Apr-15 20:34N 35°44' W 122°08'1616.3
2014-Apr-15 19:33N 35°58' W 122°17'1616.2
2014-Apr-15 18:33N 36°13' W 122°26'1220.7
2014-Apr-15 18:00N 36°24' W 122°30'511.5 310 / 221018.510.8 1.014.510.1
2014-Apr-15 17:33N 36°28' W 122°34'1616.3
2014-Apr-15 16:33N 36°43' W 122°43'1616.1
2014-Apr-15 15:33N 36°57' W 122°52'1616.1
2014-Apr-15 14:33N 37°12' W 123°01'16 7.9
2014-Apr-15 12:34N 37°27' W 123°05'1414.4
2014-Apr-15 11:34N 37°39' W 122°55'1414.1
2014-Apr-15 10:34N 37°46' W 122°39'1414.3
2014-Apr-15 09:34N 37°48' W 122°21'2 1.7
2014-Apr-15 08:33N 37°49' W 122°19'0 0.0
2014-Apr-15 07:33N 37°49' W 122°19'0 0.0
2014-Apr-15 06:33N 37°49' W 122°19'0 0.0
2014-Apr-15 05:33N 37°49' W 122°19'0 0.0
2014-Apr-15 03:33N 37°49' W 122°19'0 0.0
2014-Apr-15 02:33N 37°49' W 122°19'0 0.0
2014-Apr-15 01:33N 37°49' W 122°19'0 0.0
2014-Apr-15 00:32N 37°49' W 122°19'0 0.0
2014-Apr-14 23:32N 37°49' W 122°19'1 0.7
2014-Apr-14 22:34N 37°49' W 122°20'9 8.9
2014-Apr-14 21:32N 37°48' W 122°32'1010.1
2014-Apr-14 20:34N 37°43' W 122°43'1010.2
2014-Apr-14 19:34N 37°37' W 122°53'1010.0
2014-Apr-14 18:33N 37°31' W 123°03'1933.6
2014-Apr-14 18:00N 37°12' W 123°00'920.6 340 / 171021.010.8 0.513.010.3
2014-Apr-14 17:33N 37°20' W 123°04'1110.6
2014-Apr-14 16:33N 37°10' W 122°60'1111.2
2014-Apr-14 15:33N 37°00' W 122°54'1211.8
2014-Apr-14 14:34N 36°50' W 122°47'1515.2
2014-Apr-14 13:33N 36°36' W 122°39'2613.2
2014-Apr-14 11:33N 36°12' W 122°25'1312.9
2014-Apr-14 10:33N 36°00' W 122°18'1313.1
2014-Apr-14 09:33N 35°49' W 122°11'1413.6
2014-Apr-14 08:33N 35°36' W 122°04'2713.3
2014-Apr-14 06:33N 35°12' W 121°50'2747.2
2014-Apr-14 06:00N 34°48' W 121°36'1330.2 310 / 171019.010.8 0.514.010.5
2014-Apr-14 05:33N 34°60' W 121°43'14612.6
2014-Apr-13 18:00N 33°36' W 119°18'42 1.3 270 / 91017.510.8 13.5 9.0
2014-Apr-12 09:19N 33°39' W 118°27'6 7.7
2014-Apr-12 08:32N 33°42' W 118°34'9 7.9
2014-Apr-12 07:27N 33°46' W 118°42'8 8.3
2014-Apr-12 06:33N 33°50' W 118°50'9 8.3
2014-Apr-12 05:31N 33°54' W 118°59'3 2.7
2014-Apr-12 04:28N 33°52' W 119°00'3 3.5
2014-Apr-12 03:32N 33°53' W 118°56'8 8.2
2014-Apr-12 02:33N 33°57' W 119°05'14 5.6
2014-Apr-12 00:06N 34°09' W 119°12'0 0.3
2014-Apr-11 23:33N 34°09' W 119°12'0 0.0
2014-Apr-11 22:24N 34°09' W 119°12'0 0.0
2014-Apr-11 21:33N 34°09' W 119°12'0 0.0
2014-Apr-11 20:30N 34°09' W 119°12'0 0.0
2014-Apr-11 17:03N 34°09' W 119°12'0 0.0
2014-Apr-11 15:30N 34°09' W 119°12'0 0.0
2014-Apr-11 14:33N 34°09' W 119°12'0 0.0
2014-Apr-11 11:33N 34°09' W 119°12'0 0.0
2014-Apr-11 10:24N 34°09' W 119°12'0 0.0
2014-Apr-11 09:30N 34°09' W 119°12'0 0.0
2014-Apr-11 08:30N 34°09' W 119°12'0 0.0
2014-Apr-11 07:33N 34°09' W 119°12'0 0.0
2014-Apr-11 06:33N 34°09' W 119°12'0 0.0
2014-Apr-11 05:33N 34°09' W 119°12'0 0.0
2014-Apr-11 04:33N 34°09' W 119°12'0 0.0
2014-Apr-11 03:33N 34°09' W 119°12'0 0.0
2014-Apr-11 02:33N 34°09' W 119°12'0 0.0
2014-Apr-11 01:33N 34°09' W 119°12'0 0.0
2014-Apr-11 00:33N 34°09' W 119°12'0 0.0
2014-Apr-10 23:33N 34°09' W 119°12'0 0.0
2014-Apr-10 22:33N 34°09' W 119°12'0 0.0
2014-Apr-10 21:30N 34°09' W 119°12'0 0.0
2014-Apr-10 20:27N 34°09' W 119°12'0 0.0
2014-Apr-10 19:33N 34°09' W 119°12'0 0.0
2014-Apr-10 18:33N 34°09' W 119°12'0 0.0
2014-Apr-10 17:33N 34°09' W 119°12'0 0.0
2014-Apr-10 16:33N 34°09' W 119°12'0 0.0
2014-Apr-10 15:33N 34°09' W 119°12'0 0.0
2014-Apr-10 14:33N 34°09' W 119°12'0 0.0
2014-Apr-10 13:33N 34°09' W 119°12'0 0.0
2014-Apr-10 12:33N 34°09' W 119°12'0 0.0
2014-Apr-10 11:33N 34°09' W 119°12'0 0.0
2014-Apr-10 10:33N 34°09' W 119°12'0 0.0
2014-Apr-10 09:33N 34°09' W 119°12'0 0.0
2014-Apr-10 08:33N 34°09' W 119°12'0 0.0
2014-Apr-10 07:33N 34°09' W 119°12'0 0.0
2014-Apr-10 06:30N 34°09' W 119°12'0 0.0
2014-Apr-10 05:33N 34°09' W 119°12'0 0.0
2014-Apr-10 04:30N 34°09' W 119°12'0 0.0
2014-Apr-10 03:30N 34°09' W 119°12'0 0.0
2014-Apr-10 02:33N 34°09' W 119°12'0 0.0
2014-Apr-10 01:33N 34°09' W 119°12'0 0.0
2014-Apr-10 00:31N 34°09' W 119°12'5 5.3
2014-Apr-09 23:33N 34°04' W 119°14'1111.6
2014-Apr-09 22:34N 33°58' W 119°02'1110.9
2014-Apr-09 21:33N 33°53' W 118°50'1110.9
2014-Apr-09 20:34N 33°47' W 118°39'1111.1
2014-Apr-09 19:34N 33°42' W 118°27'1110.9
2014-Apr-09 18:33N 33°38' W 118°15'1010.1
2014-Apr-09 17:34N 33°30' W 118°07'1110.9
2014-Apr-09 16:34N 33°20' W 118°03'1110.9
2014-Apr-09 15:34N 33°10' W 117°58'1111.0
2014-Apr-09 14:34N 32°59' W 117°54'1212.1
2014-Apr-09 13:33N 32°48' W 117°49'1212.1
2014-Apr-09 12:34N 32°36' W 117°44'1312.9
2014-Apr-09 11:33N 32°24' W 117°39'1312.6
2014-Apr-09 10:34N 32°12' W 117°34'1412.5
2014-Apr-09 09:28N 31°59' W 117°28'1213.0
2014-Apr-09 08:34N 31°48' W 117°24'1313.0
2014-Apr-09 07:34N 31°36' W 117°19'1312.9
2014-Apr-09 06:33N 31°24' W 117°14'610.6
2014-Apr-09 06:00N 31°18' W 117°12'6113.7 010 / 91017.010.8 0.518.013.1
2014-Apr-09 01:31N 30°21' W 116°47'1813.3
2014-Apr-09 00:12N 30°04' W 116°40'1013.4
2014-Apr-08 23:26N 29°54' W 116°37'1312.2
2014-Apr-08 22:21N 29°42' W 116°32'1012.2
2014-Apr-08 21:30N 29°32' W 116°28'24415.7
2014-Apr-08 06:00N 26°00' W 114°12'36415.2 350 / 91016.010.8 0.518.514.5
2014-Apr-07 06:00N 21°48' W 109°24'17914.9 330 / 151014.010.8 0.521.017.2
2014-Apr-06 18:00N 20°12' W 106°42'   290 / 121013.010.8 0.524.018.0

Dump ship's entire track history

sailing weather and tide predictions

Tasman Crusader — A8NQ7 — position and weather